NAC241 KOMA-KMCI
Flight info
| Callsign | NAC241 |
|---|---|
| Flight time | 0h 29m |
| Altitude | 17000 |
| Route | ASIIX JSONN4 |
| Aircraft | B737/M-SDE2E3FGHIRWXY/LB1 |
Departure
| Time | 2026-05-07 20:25 |
|---|---|
| Airport | Eppley Airfield (KOMA) |
Arrival
| Time | 2026-05-07 20:54 |
|---|---|
| Airport | Kansas City International Airport (KMCI) |
| Time | Latitude | Longitude | Altitude | Speed | Heading |
|---|---|---|---|---|---|
| 2026-05-07 20:05 | 41.30868 | -95.90741 | 984 ft | 0 kts | 145° |
| 2026-05-07 20:15 | 41.30881 | -95.90753 | 989 ft | 4 kts | 136° |
| 2026-05-07 20:16 | 41.30896 | -95.90781 | 988 ft | 4 kts | 102° |
| 2026-05-07 20:16 | 41.30893 | -95.90809 | 990 ft | 1 kts | 52° |
| 2026-05-07 20:16 | 41.30891 | -95.90814 | 991 ft | 0 kts | 52° |
| 2026-05-07 20:18 | 41.30896 | -95.90805 | 990 ft | 0 kts | 52° |
| 2026-05-07 20:18 | 41.30898 | -95.90802 | 991 ft | 0 kts | 52° |
| 2026-05-07 20:19 | 41.30903 | -95.90793 | 991 ft | 2 kts | 53° |
| 2026-05-07 20:19 | 41.30908 | -95.90784 | 990 ft | 1 kts | 52° |
| 2026-05-07 20:19 | 41.30908 | -95.90783 | 990 ft | 0 kts | 52° |
| 2026-05-07 20:19 | 41.30913 | -95.90775 | 985 ft | 2 kts | 53° |
| 2026-05-07 20:20 | 41.30943 | -95.90718 | 986 ft | 13 kts | 54° |
| 2026-05-07 20:20 | 41.31000 | -95.90592 | 984 ft | 17 kts | 87° |
| 2026-05-07 20:20 | 41.30973 | -95.90470 | 987 ft | 13 kts | 81° |
| 2026-05-07 20:20 | 41.30947 | -95.90376 | 986 ft | 12 kts | 146° |
| 2026-05-07 20:21 | 41.30882 | -95.90314 | 991 ft | 13 kts | 144° |
| 2026-05-07 20:21 | 41.30767 | -95.90202 | 991 ft | 27 kts | 144° |
| 2026-05-07 20:21 | 41.30600 | -95.90046 | 983 ft | 32 kts | 144° |
| 2026-05-07 20:21 | 41.30412 | -95.89867 | 993 ft | 36 kts | 144° |
| 2026-05-07 20:22 | 41.30203 | -95.89668 | 988 ft | 37 kts | 144° |
| 2026-05-07 20:22 | 41.29989 | -95.89464 | 987 ft | 38 kts | 148° |
| 2026-05-07 20:22 | 41.29786 | -95.89271 | 983 ft | 34 kts | 144° |
| 2026-05-07 20:22 | 41.29713 | -95.89180 | 987 ft | 5 kts | 81° |
| 2026-05-07 20:23 | 41.29722 | -95.89157 | 985 ft | 0 kts | 53° |
| 2026-05-07 20:24 | 41.29733 | -95.89138 | 984 ft | 12 kts | 55° |
| 2026-05-07 20:24 | 41.29816 | -95.89118 | 985 ft | 14 kts | 324° |
| 2026-05-07 20:24 | 41.29972 | -95.89267 | 989 ft | 59 kts | 324° |
| 2026-05-07 20:24 | 41.30502 | -95.89771 | 984 ft | 125 kts | 324° |
| 2026-05-07 20:25 | 41.31324 | -95.90541 | 1216 ft | 158 kts | 326° |
| 2026-05-07 20:25 | 41.32322 | -95.91314 | 1713 ft | 176 kts | 328° |
| 2026-05-07 20:25 | 41.33313 | -95.92279 | 2515 ft | 179 kts | 303° |
| 2026-05-07 20:25 | 41.33554 | -95.93937 | 3142 ft | 198 kts | 259° |
| 2026-05-07 20:26 | 41.32830 | -95.95616 | 3435 ft | 227 kts | 223° |
| 2026-05-07 20:26 | 41.31339 | -95.96493 | 3942 ft | 243 kts | 187° |
| 2026-05-07 20:26 | 41.29658 | -95.96132 | 4615 ft | 253 kts | 158° |
| 2026-05-07 20:26 | 41.28097 | -95.95066 | 5426 ft | 251 kts | 154° |
| 2026-05-07 20:27 | 41.26497 | -95.94013 | 6027 ft | 262 kts | 156° |
| 2026-05-07 20:27 | 41.24782 | -95.92945 | 6470 ft | 283 kts | 157° |
| 2026-05-07 20:27 | 41.22964 | -95.91841 | 7277 ft | 291 kts | 158° |
| 2026-05-07 20:27 | 41.21102 | -95.90731 | 8148 ft | 297 kts | 159° |
| 2026-05-07 20:28 | 41.19188 | -95.89604 | 9040 ft | 304 kts | 159° |
| 2026-05-07 20:28 | 41.17228 | -95.88462 | 9928 ft | 310 kts | 160° |
| 2026-05-07 20:28 | 41.15224 | -95.87302 | 10704 ft | 318 kts | 160° |
| 2026-05-07 20:28 | 41.13165 | -95.86116 | 11506 ft | 326 kts | 160° |
| 2026-05-07 20:29 | 41.11064 | -95.84909 | 12351 ft | 332 kts | 160° |
| 2026-05-07 20:29 | 41.08915 | -95.83679 | 13176 ft | 340 kts | 160° |
| 2026-05-07 20:29 | 41.06718 | -95.82423 | 13986 ft | 347 kts | 160° |
| 2026-05-07 20:29 | 41.04491 | -95.81150 | 14850 ft | 350 kts | 160° |
| 2026-05-07 20:30 | 41.02242 | -95.79866 | 15772 ft | 353 kts | 161° |
| 2026-05-07 20:30 | 40.99969 | -95.78570 | 16555 ft | 359 kts | 161° |
| 2026-05-07 20:30 | 40.97669 | -95.77260 | 16917 ft | 360 kts | 161° |
| 2026-05-07 20:30 | 40.95379 | -95.75957 | 16998 ft | 365 kts | 161° |
| 2026-05-07 20:31 | 40.93053 | -95.74634 | 16992 ft | 362 kts | 161° |
| 2026-05-07 20:31 | 40.90744 | -95.73319 | 17002 ft | 360 kts | 161° |
| 2026-05-07 20:31 | 40.88438 | -95.72009 | 17003 ft | 359 kts | 161° |
| 2026-05-07 20:31 | 40.86141 | -95.70706 | 16998 ft | 359 kts | 161° |
| 2026-05-07 20:32 | 40.83846 | -95.69406 | 17002 ft | 360 kts | 161° |
| 2026-05-07 20:32 | 40.81541 | -95.68101 | 16997 ft | 361 kts | 161° |
| 2026-05-07 20:32 | 40.79227 | -95.66792 | 17003 ft | 362 kts | 161° |
| 2026-05-07 20:32 | 40.76905 | -95.65480 | 17000 ft | 362 kts | 161° |
| 2026-05-07 20:33 | 40.74612 | -95.64185 | 16998 ft | 363 kts | 161° |
| 2026-05-07 20:33 | 40.72283 | -95.62870 | 16992 ft | 364 kts | 161° |
| 2026-05-07 20:33 | 40.69957 | -95.61558 | 16999 ft | 364 kts | 161° |
| 2026-05-07 20:33 | 40.67625 | -95.60243 | 16991 ft | 364 kts | 161° |
| 2026-05-07 20:34 | 40.65300 | -95.58934 | 16995 ft | 364 kts | 161° |
| 2026-05-07 20:34 | 40.62968 | -95.57621 | 16994 ft | 364 kts | 161° |
| 2026-05-07 20:34 | 40.60641 | -95.56312 | 16994 ft | 363 kts | 161° |
| 2026-05-07 20:34 | 40.58318 | -95.55007 | 16996 ft | 363 kts | 161° |
| 2026-05-07 20:35 | 40.55990 | -95.53699 | 16999 ft | 363 kts | 161° |
| 2026-05-07 20:35 | 40.53671 | -95.52398 | 16994 ft | 362 kts | 161° |
| 2026-05-07 20:35 | 40.51349 | -95.51096 | 16997 ft | 362 kts | 161° |
| 2026-05-07 20:35 | 40.49058 | -95.49813 | 16999 ft | 362 kts | 161° |
| 2026-05-07 20:36 | 40.46737 | -95.48513 | 17004 ft | 362 kts | 161° |
| 2026-05-07 20:36 | 40.44422 | -95.47218 | 17016 ft | 362 kts | 161° |
| 2026-05-07 20:36 | 40.42105 | -95.45923 | 17006 ft | 362 kts | 161° |
| 2026-05-07 20:36 | 40.39782 | -95.44626 | 17012 ft | 362 kts | 161° |
| 2026-05-07 20:37 | 40.37465 | -95.43332 | 17016 ft | 362 kts | 161° |
| 2026-05-07 20:37 | 40.35147 | -95.42038 | 17020 ft | 362 kts | 161° |
| 2026-05-07 20:37 | 40.32829 | -95.40746 | 17024 ft | 362 kts | 161° |
| 2026-05-07 20:37 | 40.30542 | -95.39472 | 17022 ft | 362 kts | 161° |
| 2026-05-07 20:38 | 40.28214 | -95.38183 | 17026 ft | 363 kts | 162° |
| 2026-05-07 20:38 | 40.25811 | -95.37348 | 17024 ft | 351 kts | 182° |
| 2026-05-07 20:38 | 40.23385 | -95.37208 | 17034 ft | 348 kts | 185° |
| 2026-05-07 20:38 | 40.20952 | -95.37162 | 17030 ft | 348 kts | 186° |
| 2026-05-07 20:39 | 40.18526 | -95.37129 | 17033 ft | 349 kts | 186° |
| 2026-05-07 20:39 | 40.16126 | -95.37087 | 17021 ft | 349 kts | 186° |
| 2026-05-07 20:39 | 40.13698 | -95.37031 | 17028 ft | 349 kts | 186° |
| 2026-05-07 20:39 | 40.11273 | -95.36964 | 17028 ft | 349 kts | 185° |
| 2026-05-07 20:40 | 40.08837 | -95.36891 | 16949 ft | 350 kts | 185° |
| 2026-05-07 20:40 | 40.06389 | -95.36814 | 16685 ft | 352 kts | 185° |
| 2026-05-07 20:40 | 40.03935 | -95.36735 | 16284 ft | 354 kts | 185° |
| 2026-05-07 20:40 | 40.01474 | -95.36653 | 15853 ft | 351 kts | 185° |
| 2026-05-07 20:41 | 39.99025 | -95.36570 | 15287 ft | 352 kts | 185° |
| 2026-05-07 20:41 | 39.96591 | -95.36491 | 14726 ft | 354 kts | 185° |
| 2026-05-07 20:41 | 39.94129 | -95.36409 | 14228 ft | 354 kts | 184° |
| 2026-05-07 20:41 | 39.91679 | -95.36326 | 13881 ft | 348 kts | 184° |
| 2026-05-07 20:42 | 39.89281 | -95.36243 | 13354 ft | 347 kts | 184° |
| 2026-05-07 20:42 | 39.86877 | -95.36165 | 12862 ft | 342 kts | 184° |
| 2026-05-07 20:42 | 39.84519 | -95.36086 | 12395 ft | 337 kts | 184° |
| 2026-05-07 20:42 | 39.82190 | -95.35579 | 11911 ft | 345 kts | 163° |
| 2026-05-07 20:43 | 39.80134 | -95.33984 | 11628 ft | 344 kts | 141° |
| 2026-05-07 20:43 | 39.78383 | -95.31901 | 11339 ft | 339 kts | 138° |
| 2026-05-07 20:43 | 39.76693 | -95.29776 | 11030 ft | 338 kts | 138° |
| 2026-05-07 20:43 | 39.75008 | -95.27644 | 10727 ft | 337 kts | 138° |
| 2026-05-07 20:44 | 39.73330 | -95.25537 | 10431 ft | 334 kts | 138° |
| 2026-05-07 20:44 | 39.71662 | -95.23463 | 10138 ft | 329 kts | 138° |
| 2026-05-07 20:44 | 39.70014 | -95.21426 | 9888 ft | 323 kts | 139° |
| 2026-05-07 20:44 | 39.68439 | -95.19488 | 9672 ft | 314 kts | 139° |
| 2026-05-07 20:45 | 39.66840 | -95.17528 | 9303 ft | 313 kts | 139° |
| 2026-05-07 20:45 | 39.65267 | -95.15601 | 8979 ft | 309 kts | 139° |
| 2026-05-07 20:45 | 39.63707 | -95.13692 | 8701 ft | 306 kts | 139° |
| 2026-05-07 20:45 | 39.62165 | -95.11809 | 8411 ft | 302 kts | 140° |
| 2026-05-07 20:46 | 39.60647 | -95.09940 | 8139 ft | 300 kts | 136° |
| 2026-05-07 20:46 | 39.59499 | -95.07694 | 7870 ft | 299 kts | 113° |
| 2026-05-07 20:46 | 39.58781 | -95.05175 | 7612 ft | 297 kts | 109° |
| 2026-05-07 20:46 | 39.58121 | -95.02674 | 7364 ft | 297 kts | 109° |
| 2026-05-07 20:47 | 39.57452 | -95.00136 | 7085 ft | 296 kts | 109° |
| 2026-05-07 20:47 | 39.56780 | -94.97616 | 6808 ft | 296 kts | 110° |
| 2026-05-07 20:47 | 39.56101 | -94.95101 | 6527 ft | 296 kts | 110° |
| 2026-05-07 20:47 | 39.55414 | -94.92586 | 6267 ft | 295 kts | 110° |
| 2026-05-07 20:48 | 39.54730 | -94.90092 | 5983 ft | 291 kts | 111° |
| 2026-05-07 20:48 | 39.54055 | -94.87641 | 5737 ft | 287 kts | 112° |
| 2026-05-07 20:48 | 39.53391 | -94.85215 | 5452 ft | 286 kts | 112° |
| 2026-05-07 20:48 | 39.52724 | -94.82750 | 5219 ft | 295 kts | 112° |
| 2026-05-07 20:49 | 39.52041 | -94.80221 | 4963 ft | 299 kts | 112° |
| 2026-05-07 20:49 | 39.51586 | -94.78533 | 4794 ft | 301 kts | 112° |
| 2026-05-07 20:49 | 39.50677 | -94.75164 | 4483 ft | 296 kts | 113° |
| 2026-05-07 20:49 | 39.49916 | -94.72706 | 4117 ft | 288 kts | 125° |
| 2026-05-07 20:50 | 39.48621 | -94.70880 | 3937 ft | 267 kts | 149° |
| 2026-05-07 20:50 | 39.47584 | -94.70113 | 3776 ft | 251 kts | 164° |
| 2026-05-07 20:50 | 39.46005 | -94.69455 | 3642 ft | 228 kts | 168° |
| 2026-05-07 20:50 | 39.44528 | -94.68908 | 3402 ft | 214 kts | 175° |
| 2026-05-07 20:51 | 39.43099 | -94.68931 | 3092 ft | 196 kts | 192° |
| 2026-05-07 20:51 | 39.41851 | -94.69212 | 2884 ft | 169 kts | 197° |
| 2026-05-07 20:51 | 39.40773 | -94.69538 | 2676 ft | 152 kts | 197° |
| 2026-05-07 20:51 | 39.39775 | -94.69828 | 2518 ft | 140 kts | 198° |
| 2026-05-07 20:52 | 39.38859 | -94.70108 | 2327 ft | 132 kts | 198° |
| 2026-05-07 20:52 | 39.37973 | -94.70365 | 2164 ft | 129 kts | 197° |
| 2026-05-07 20:52 | 39.37110 | -94.70616 | 1964 ft | 129 kts | 198° |
| 2026-05-07 20:52 | 39.36240 | -94.70881 | 1797 ft | 128 kts | 197° |
| 2026-05-07 20:53 | 39.35381 | -94.71132 | 1632 ft | 124 kts | 199° |
| 2026-05-07 20:53 | 39.34540 | -94.71372 | 1430 ft | 124 kts | 200° |
| 2026-05-07 20:53 | 39.33666 | -94.71662 | 1276 ft | 142 kts | 198° |
| 2026-05-07 20:53 | 39.32690 | -94.71940 | 1150 ft | 143 kts | 196° |
| 2026-05-07 20:54 | 39.31774 | -94.72209 | 1024 ft | 123 kts | 197° |
| 2026-05-07 20:54 | 39.31093 | -94.72418 | 1014 ft | 48 kts | 193° |
| 2026-05-07 20:54 | 39.30861 | -94.72427 | 1012 ft | 27 kts | 164° |
| 2026-05-07 20:54 | 39.30734 | -94.72327 | 1013 ft | 20 kts | 126° |
| 2026-05-07 20:55 | 39.30699 | -94.72171 | 1013 ft | 16 kts | 102° |
| 2026-05-07 20:55 | 39.30678 | -94.72052 | 1013 ft | 10 kts | 105° |
| 2026-05-07 20:55 | 39.30638 | -94.72017 | 1013 ft | 5 kts | 190° |
| 2026-05-07 20:55 | 39.30619 | -94.72024 | 1013 ft | 1 kts | 194° |
| 2026-05-07 20:56 | 39.30618 | -94.72024 | 1013 ft | 0 kts | 195° |